createdAt,value
2022-11-05T00:02:00.709Z,68.00
2022-11-05T00:04:45.825Z,67.90
2022-11-05T00:07:39.036Z,67.30
2022-11-05T00:10:10.164Z,68.00
2022-11-05T00:12:55.760Z,68.00
2022-11-05T00:15:41.138Z,68.00
2022-11-05T00:18:07.784Z,68.00
2022-11-05T00:20:34.505Z,68.60
2022-11-05T00:23:21.465Z,68.00
2022-11-05T00:26:02.518Z,67.90
2022-11-05T00:28:30.399Z,68.00
2022-11-05T00:31:04.577Z,68.00
2022-11-05T00:33:31.686Z,67.90
2022-11-05T00:35:58.609Z,67.90
2022-11-05T00:38:25.274Z,67.90
2022-11-05T00:40:51.833Z,68.00
2022-11-05T00:43:37.199Z,67.80
2022-11-05T00:46:03.837Z,67.90
2022-11-05T00:48:48.802Z,67.90
2022-11-05T00:51:15.458Z,67.90
2022-11-05T00:53:42.388Z,67.90
2022-11-05T00:56:09.203Z,67.90
2022-11-05T00:58:35.796Z,67.90
2022-11-05T01:01:03.528Z,67.90
2022-11-05T01:03:32.733Z,68.00
2022-11-05T01:06:13.268Z,67.90
2022-11-05T01:08:41.317Z,67.90
2022-11-05T01:11:11.144Z,67.90
2022-11-05T01:13:40.086Z,67.90
2022-11-05T01:16:09.460Z,67.90
2022-11-05T01:18:39.082Z,67.90
2022-11-05T01:21:13.288Z,67.90
2022-11-05T01:23:40.247Z,67.90
2022-11-05T01:26:06.916Z,67.80
2022-11-05T01:28:33.572Z,67.70
2022-11-05T01:31:00.214Z,67.90
2022-11-05T01:33:26.790Z,67.70
2022-11-05T01:35:53.386Z,67.90
2022-11-05T01:38:20.033Z,67.70
2022-11-05T01:40:46.711Z,67.90
2022-11-05T01:43:18.406Z,67.80
2022-11-05T01:45:48.604Z,67.10
2022-11-05T01:48:23.648Z,67.80
2022-11-05T01:50:59.060Z,67.70
2022-11-05T01:53:28.722Z,67.70
2022-11-05T01:55:57.680Z,67.70
2022-11-05T01:58:29.020Z,67.70
2022-11-05T02:00:57.285Z,67.70
2022-11-05T02:03:24.729Z,67.60
2022-11-05T02:05:54.988Z,67.70
2022-11-05T02:08:54.815Z,67.70
2022-11-05T02:11:21.937Z,67.60
2022-11-05T02:13:49.395Z,67.60
2022-11-05T02:16:24.752Z,67.60
2022-11-05T02:19:00.099Z,67.50
2022-11-05T02:21:43.309Z,67.50
2022-11-05T02:24:25.424Z,66.90
2022-11-05T02:26:55.085Z,67.50
2022-11-05T02:29:34.487Z,67.50
2022-11-05T02:32:22.473Z,67.50
2022-11-05T02:35:12.027Z,66.90
2022-11-05T02:37:41.242Z,67.50
2022-11-05T02:40:23.208Z,67.50
2022-11-05T02:43:05.285Z,67.50
2022-11-05T02:45:57.500Z,67.50
2022-11-05T02:48:34.588Z,67.40
2022-11-05T02:51:22.279Z,67.50
2022-11-05T02:54:01.816Z,67.40
2022-11-05T02:56:35.810Z,67.30
2022-11-05T02:59:02.409Z,67.30
2022-11-05T03:01:29.072Z,67.30
2022-11-05T03:04:01.726Z,66.70
2022-11-05T03:06:36.352Z,67.40
2022-11-05T03:09:20.858Z,67.30
2022-11-05T03:12:25.593Z,67.40
2022-11-05T03:15:16.648Z,67.40
2022-11-05T03:18:20.959Z,67.30
2022-11-05T03:20:52.107Z,67.30
2022-11-05T03:23:42.524Z,67.30
2022-11-05T03:26:18.481Z,67.30
2022-11-05T03:28:50.445Z,67.30
2022-11-05T03:31:18.518Z,67.30
2022-11-05T03:33:46.549Z,67.40
2022-11-05T03:36:27.554Z,67.30
2022-11-05T03:38:56.184Z,67.40
2022-11-05T03:41:25.185Z,67.30
2022-11-05T03:43:56.476Z,67.30
2022-11-05T03:46:23.007Z,67.30
2022-11-05T03:48:53.426Z,67.30
2022-11-05T03:51:38.071Z,67.40
2022-11-05T03:54:05.701Z,67.30
2022-11-05T03:56:54.064Z,67.30
2022-11-05T03:59:22.233Z,67.40
2022-11-05T04:01:49.949Z,67.30
2022-11-05T04:04:16.646Z,67.30
2022-11-05T04:07:01.946Z,67.40
2022-11-05T04:09:47.329Z,68.00
2022-11-05T04:12:32.531Z,67.30
2022-11-05T04:14:59.118Z,66.70
2022-11-05T04:17:25.704Z,67.30
2022-11-05T04:20:11.157Z,67.30
2022-11-05T04:22:56.587Z,67.40
2022-11-05T04:25:23.306Z,66.70
2022-11-05T04:27:50.005Z,67.40
2022-11-05T04:30:21.514Z,67.30
2022-11-05T04:33:03.249Z,67.30
2022-11-05T04:35:38.098Z,66.70
2022-11-05T04:38:10.489Z,67.30
2022-11-05T04:40:37.770Z,67.30
2022-11-05T04:43:05.914Z,67.40
2022-11-05T04:45:35.946Z,67.30
2022-11-05T04:48:03.920Z,67.40
2022-11-05T04:50:31.756Z,67.20
2022-11-05T04:52:58.521Z,67.30
2022-11-05T04:55:25.779Z,66.60
2022-11-05T04:57:54.236Z,67.30
2022-11-05T05:00:22.657Z,67.30
2022-11-05T05:02:49.444Z,67.20
2022-11-05T05:05:16.113Z,67.20
2022-11-05T05:07:42.921Z,67.20
2022-11-05T05:10:10.588Z,67.20
2022-11-05T05:12:37.239Z,67.30
2022-11-05T05:15:04.605Z,67.20
2022-11-05T05:17:31.217Z,67.30
2022-11-05T05:20:16.436Z,67.20
2022-11-05T05:22:43.069Z,67.30
2022-11-05T05:25:09.677Z,67.20
2022-11-05T05:27:36.306Z,67.20
2022-11-05T05:30:03.383Z,67.30
2022-11-05T05:32:29.993Z,67.30
2022-11-05T05:34:56.642Z,67.20
2022-11-05T05:37:23.238Z,67.20
2022-11-05T05:39:49.880Z,67.30
2022-11-05T05:42:16.588Z,67.20
2022-11-05T05:44:43.246Z,67.30
2022-11-05T05:47:09.941Z,67.20
2022-11-05T05:49:36.639Z,67.20
2022-11-05T05:52:03.363Z,67.20
2022-11-05T05:54:33.398Z,67.20
2022-11-05T05:57:01.846Z,67.30
2022-11-05T05:59:28.466Z,67.20
2022-11-05T06:01:55.210Z,67.20
2022-11-05T06:04:22.099Z,67.20
2022-11-05T06:06:48.686Z,67.20
2022-11-05T06:09:15.483Z,67.30
2022-11-05T06:11:42.203Z,67.30
2022-11-05T06:14:12.819Z,67.30
2022-11-05T06:16:40.121Z,67.20
2022-11-05T06:19:07.541Z,67.30
2022-11-05T06:21:34.584Z,67.30
2022-11-05T06:24:04.785Z,67.30
2022-11-05T06:26:31.527Z,67.30
2022-11-05T06:28:58.203Z,68.10
2022-11-05T06:31:24.982Z,67.30
2022-11-05T06:33:51.654Z,67.20
2022-11-05T06:36:20.049Z,67.30
2022-11-05T06:38:46.861Z,67.20
2022-11-05T06:41:13.688Z,67.40
2022-11-05T06:43:40.341Z,67.20
2022-11-05T06:46:07.952Z,67.20
2022-11-05T06:48:34.907Z,67.20
2022-11-05T06:51:02.045Z,67.30
2022-11-05T06:53:28.655Z,67.20
2022-11-05T06:55:55.323Z,67.30
2022-11-05T06:58:22.118Z,67.10
2022-11-05T07:00:49.136Z,67.20
2022-11-05T07:03:15.960Z,67.30
2022-11-05T07:05:45.131Z,67.10
2022-11-05T07:08:11.719Z,67.20
2022-11-05T07:10:38.380Z,67.20
2022-11-05T07:13:08.029Z,67.10
2022-11-05T07:15:36.419Z,67.30
2022-11-05T07:18:03.568Z,67.10
2022-11-05T07:20:33.904Z,67.10
2022-11-05T07:23:10.978Z,66.60
2022-11-05T07:25:38.042Z,68.00
2022-11-05T07:28:05.208Z,67.30
2022-11-05T07:30:33.275Z,67.20
2022-11-05T07:33:00.151Z,67.30
2022-11-05T07:35:26.985Z,66.70
2022-11-05T07:37:54.815Z,67.30
2022-11-05T07:40:23.510Z,67.40
2022-11-05T07:42:52.092Z,67.30
2022-11-05T07:45:19.525Z,67.40
2022-11-05T07:47:47.786Z,67.40
2022-11-05T07:50:16.162Z,67.40
2022-11-05T07:52:42.857Z,67.40
2022-11-05T07:55:10.661Z,67.40
2022-11-05T07:57:44.973Z,67.40
2022-11-05T08:00:14.473Z,66.20
2022-11-05T08:02:42.574Z,67.50
2022-11-05T08:05:10.284Z,67.40
2022-11-05T08:07:36.900Z,67.50
2022-11-05T08:10:04.213Z,67.50
2022-11-05T08:12:33.528Z,67.50
2022-11-05T08:15:00.208Z,67.50
2022-11-05T08:17:26.869Z,67.50
2022-11-05T08:19:53.475Z,67.50
2022-11-05T08:22:20.164Z,67.50
2022-11-05T08:24:46.793Z,66.90
2022-11-05T08:27:13.790Z,67.50
2022-11-05T08:29:40.408Z,67.50
2022-11-05T08:32:06.978Z,67.60
2022-11-05T08:34:33.578Z,67.70
2022-11-05T08:37:01.578Z,67.50
2022-11-05T08:39:28.392Z,67.60
2022-11-05T08:41:55.149Z,67.60
2022-11-05T08:44:22.059Z,67.00
2022-11-05T08:46:48.771Z,67.70
2022-11-05T08:49:15.355Z,67.70
2022-11-05T08:51:43.910Z,68.10
2022-11-05T08:54:10.581Z,68.30
2022-11-05T08:56:37.168Z,68.40
2022-11-05T08:59:03.840Z,68.30
2022-11-05T09:01:30.758Z,68.50
2022-11-05T09:03:57.454Z,68.50
2022-11-05T09:06:24.142Z,68.60
2022-11-05T09:08:50.761Z,68.60
2022-11-05T09:11:18.122Z,68.80
2022-11-05T09:13:44.822Z,68.90
2022-11-05T09:16:23.261Z,68.90
2022-11-05T09:18:50.171Z,68.70
2022-11-05T09:21:17.786Z,68.80
2022-11-05T09:23:45.520Z,68.90
2022-11-05T09:26:13.437Z,68.30
2022-11-05T09:28:40.472Z,68.80
2022-11-05T09:31:08.643Z,69.10
2022-11-05T09:33:37.481Z,69.50
2022-11-05T09:36:04.734Z,69.50
2022-11-05T09:38:35.313Z,68.90
2022-11-05T09:41:22.368Z,68.80
2022-11-05T09:43:51.408Z,68.90
2022-11-05T09:46:23.160Z,68.80
2022-11-05T09:48:55.051Z,68.90
2022-11-05T09:51:24.148Z,69.20
2022-11-05T09:53:51.529Z,68.60
2022-11-05T09:56:27.873Z,69.30
2022-11-05T09:59:18.852Z,69.20
2022-11-05T10:01:46.348Z,68.90
2022-11-05T10:04:19.706Z,68.90
2022-11-05T10:06:51.542Z,69.10
2022-11-05T10:09:21.102Z,69.20
2022-11-05T10:11:54.085Z,69.20
2022-11-05T10:14:26.947Z,69.90
2022-11-05T10:17:00.275Z,69.20
2022-11-05T10:19:37.125Z,69.00
2022-11-05T10:22:19.150Z,69.10
2022-11-05T10:24:50.807Z,69.00
2022-11-05T10:27:27.765Z,69.70
2022-11-05T10:29:54.916Z,68.90
2022-11-05T10:32:40.020Z,68.90
2022-11-05T10:35:10.428Z,68.70
2022-11-05T10:37:40.814Z,68.80
2022-11-05T10:40:18.081Z,68.70
2022-11-05T10:43:03.039Z,68.80
2022-11-05T10:46:02.583Z,68.90
2022-11-05T10:49:03.602Z,68.80
2022-11-05T10:51:31.785Z,69.00
2022-11-05T10:54:05.391Z,69.10
2022-11-05T10:56:41.563Z,69.20
2022-11-05T10:59:25.314Z,69.40
2022-11-05T11:02:14.741Z,69.50
2022-11-05T11:04:41.742Z,69.60
2022-11-05T11:07:22.575Z,69.70
2022-11-05T11:09:50.542Z,69.70
2022-11-05T11:12:25.763Z,69.30
2022-11-05T11:15:04.372Z,69.30
2022-11-05T11:17:32.459Z,69.20
2022-11-05T11:20:20.550Z,69.30
2022-11-05T11:23:12.611Z,69.60
2022-11-05T11:26:00.535Z,69.70
2022-11-05T11:28:49.159Z,69.70
2022-11-05T11:31:27.515Z,69.80
2022-11-05T11:34:27.017Z,68.60
2022-11-05T11:37:05.831Z,69.30
2022-11-05T11:39:33.453Z,69.40
2022-11-05T11:42:07.771Z,69.40
2022-11-05T11:44:41.847Z,68.70
2022-11-05T11:47:14.182Z,69.30
2022-11-05T11:49:51.944Z,69.40
2022-11-05T11:52:24.199Z,69.40
2022-11-05T11:54:51.927Z,69.50
2022-11-05T11:57:25.752Z,69.40
2022-11-05T12:00:08.433Z,70.10
2022-11-05T12:03:21.055Z,69.50
2022-11-05T12:05:51.265Z,69.40
2022-11-05T12:08:26.777Z,69.50
2022-11-05T12:11:02.880Z,69.50
2022-11-05T12:13:50.879Z,69.60
2022-11-05T12:16:22.433Z,69.20
2022-11-05T12:19:00.050Z,69.70
2022-11-05T12:21:51.335Z,69.70
2022-11-05T12:24:32.242Z,69.70
2022-11-05T12:27:09.373Z,69.60
2022-11-05T12:29:57.070Z,69.60
2022-11-05T12:32:44.659Z,69.70
2022-11-05T12:35:29.799Z,70.00
2022-11-05T12:38:37.467Z,69.90
2022-11-05T12:41:41.606Z,70.00
2022-11-05T12:44:20.035Z,70.10
2022-11-05T12:47:05.196Z,69.80
2022-11-05T12:49:43.858Z,69.80
2022-11-05T12:52:34.990Z,70.00
2022-11-05T12:55:13.369Z,70.20
2022-11-05T12:57:43.024Z,70.30
2022-11-05T13:00:20.281Z,70.50
2022-11-05T13:02:56.314Z,71.50
2022-11-05T13:05:36.360Z,70.20
2022-11-05T13:08:13.411Z,71.30
2022-11-05T13:10:46.144Z,71.70
2022-11-05T13:13:33.730Z,71.30
2022-11-05T13:16:24.980Z,72.00
2022-11-05T13:19:10.124Z,72.10
2022-11-05T13:21:38.837Z,72.20
2022-11-05T13:24:20.341Z,72.20
2022-11-05T13:27:28.987Z,72.20
2022-11-05T13:30:04.098Z,72.10
2022-11-05T13:32:40.757Z,72.10
2022-11-05T13:35:15.994Z,71.30
2022-11-05T13:38:04.992Z,71.80
2022-11-05T13:41:00.519Z,71.70
2022-11-05T13:43:30.073Z,71.00
2022-11-05T13:46:17.361Z,71.50
2022-11-05T13:49:04.733Z,71.50
2022-11-05T13:52:01.108Z,71.10
2022-11-05T13:55:01.223Z,71.50
2022-11-05T13:57:39.759Z,71.30
2022-11-05T14:00:19.850Z,71.30
2022-11-05T14:02:52.816Z,71.10
2022-11-05T14:05:35.892Z,71.00
2022-11-05T14:08:12.599Z,70.90
2022-11-05T14:10:45.779Z,71.00
2022-11-05T14:13:18.150Z,70.90
2022-11-05T14:16:10.440Z,70.90
2022-11-05T14:18:44.212Z,70.90
2022-11-05T14:21:46.924Z,71.00
2022-11-05T14:24:22.615Z,71.70
2022-11-05T14:27:01.269Z,71.10
2022-11-05T14:29:45.240Z,71.20
2022-11-05T14:32:17.915Z,71.10
2022-11-05T14:34:54.911Z,71.30
2022-11-05T14:37:50.250Z,71.40
2022-11-05T14:40:42.196Z,71.40
2022-11-05T14:43:14.955Z,71.30
2022-11-05T14:46:03.116Z,71.30
2022-11-05T14:48:43.476Z,71.40
2022-11-05T14:51:39.556Z,71.30
2022-11-05T14:54:27.080Z,70.80
2022-11-05T14:57:03.498Z,70.70
2022-11-05T14:59:32.821Z,71.20
2022-11-05T15:02:11.346Z,71.20
2022-11-05T15:04:45.358Z,71.30
2022-11-05T15:07:29.354Z,71.10
2022-11-05T15:10:13.516Z,71.20
2022-11-05T15:12:45.455Z,71.20
2022-11-05T15:15:27.757Z,71.30
2022-11-05T15:17:58.222Z,71.20
2022-11-05T15:20:48.429Z,71.30
2022-11-05T15:23:19.088Z,71.20
2022-11-05T15:26:05.561Z,71.30
2022-11-05T15:28:41.580Z,71.30
2022-11-05T15:31:14.333Z,71.30
2022-11-05T15:33:42.536Z,71.20
2022-11-05T15:36:30.581Z,71.30
2022-11-05T15:39:27.262Z,71.30
2022-11-05T15:41:46.268Z,71.70
2022-11-05T15:44:27.402Z,71.50
2022-11-05T15:47:22.988Z,71.70
2022-11-05T15:50:14.945Z,71.70
2022-11-05T15:52:49.968Z,71.70
2022-11-05T15:55:23.464Z,71.10
2022-11-05T15:58:03.660Z,71.70
2022-11-05T16:00:32.971Z,71.90
2022-11-05T16:03:05.931Z,71.80
2022-11-05T16:05:44.914Z,71.80
2022-11-05T16:08:22.414Z,71.70
2022-11-05T16:10:51.925Z,71.80
2022-11-05T16:13:35.667Z,71.70
2022-11-05T16:16:23.932Z,71.70
2022-11-05T16:18:50.618Z,71.70
2022-11-05T16:21:23.101Z,71.50
2022-11-05T16:23:49.737Z,71.40
2022-11-05T16:26:47.989Z,71.30
2022-11-05T16:29:32.841Z,71.30
2022-11-05T16:32:02.630Z,71.30
2022-11-05T16:34:40.303Z,71.70
2022-11-05T16:37:12.011Z,71.50
2022-11-05T16:39:38.707Z,71.40
2022-11-05T16:42:23.111Z,71.40
2022-11-05T16:44:51.445Z,71.40
2022-11-05T16:47:18.772Z,71.50
2022-11-05T16:49:46.923Z,71.50
2022-11-05T16:52:13.997Z,71.50
2022-11-05T16:54:40.699Z,71.40
2022-11-05T16:57:15.537Z,71.40
2022-11-05T16:59:42.114Z,71.50
2022-11-05T17:02:10.941Z,71.40
2022-11-05T17:04:37.664Z,71.40
2022-11-05T17:07:04.263Z,71.40
2022-11-05T17:09:31.790Z,71.20
2022-11-05T17:12:00.603Z,71.30
2022-11-05T17:14:27.177Z,71.40
2022-11-05T17:16:53.868Z,71.50
2022-11-05T17:19:20.660Z,71.40
2022-11-05T17:21:47.264Z,71.40
2022-11-05T17:24:13.852Z,71.60
2022-11-05T17:26:40.477Z,71.50
2022-11-05T17:29:07.094Z,71.40
2022-11-05T17:31:33.678Z,71.60
2022-11-05T17:34:00.347Z,71.70
2022-11-05T17:36:27.137Z,71.70
2022-11-05T17:38:53.877Z,71.70
2022-11-05T17:41:22.268Z,71.70
2022-11-05T17:43:53.971Z,71.80
2022-11-05T17:46:20.958Z,72.10
2022-11-05T17:48:47.596Z,72.10
2022-11-05T17:51:16.624Z,72.20
2022-11-05T17:53:44.439Z,72.40
2022-11-05T17:56:12.831Z,72.30
2022-11-05T17:58:39.756Z,72.00
2022-11-05T18:01:08.255Z,72.20
2022-11-05T18:03:35.048Z,71.90
2022-11-05T18:06:03.315Z,72.00
2022-11-05T18:08:30.284Z,72.10
2022-11-05T18:10:57.043Z,72.20
2022-11-05T18:13:23.717Z,72.10
2022-11-05T18:15:54.141Z,72.20
2022-11-05T18:18:22.156Z,72.10
2022-11-05T18:20:48.888Z,72.00
2022-11-05T18:23:15.683Z,72.10
2022-11-05T18:25:42.976Z,72.10
2022-11-05T18:28:10.052Z,72.00
2022-11-05T18:30:38.975Z,72.00
2022-11-05T18:33:05.870Z,72.00
2022-11-05T18:35:32.482Z,71.40
2022-11-05T18:37:59.220Z,71.90
2022-11-05T18:40:25.813Z,71.80
2022-11-05T18:42:52.396Z,71.80
2022-11-05T18:45:19.028Z,71.70
2022-11-05T18:47:45.658Z,71.70
2022-11-05T18:50:12.308Z,71.90
2022-11-05T18:52:38.911Z,71.30
2022-11-05T18:55:06.144Z,71.60
2022-11-05T18:57:34.391Z,71.60
2022-11-05T19:00:01.047Z,71.00
2022-11-05T19:02:28.165Z,71.60
2022-11-05T19:05:26.892Z,71.70
2022-11-05T19:07:41.525Z,71.70
2022-11-05T19:10:09.407Z,71.60
2022-11-05T19:12:36.050Z,71.80
2022-11-05T19:15:03.286Z,72.00
2022-11-05T19:17:32.457Z,72.20
2022-11-05T19:19:59.185Z,72.10
2022-11-05T19:22:26.225Z,72.00
2022-11-05T19:24:52.919Z,71.80
2022-11-05T19:27:19.732Z,72.00
2022-11-05T19:29:46.852Z,72.30
2022-11-05T19:32:13.431Z,72.20
2022-11-05T19:34:40.014Z,71.50
2022-11-05T19:37:08.029Z,72.20
2022-11-05T19:39:35.530Z,72.20
2022-11-05T19:42:03.993Z,72.20
2022-11-05T19:44:30.832Z,71.70
2022-11-05T19:46:57.612Z,72.30
2022-11-05T19:49:24.319Z,72.40
2022-11-05T19:51:51.005Z,72.30
2022-11-05T19:54:17.588Z,72.10
2022-11-05T19:56:44.194Z,72.20
2022-11-05T19:59:11.249Z,72.20
2022-11-05T20:01:38.018Z,72.10
2022-11-05T20:04:05.658Z,71.50
2022-11-05T20:06:37.659Z,72.10
2022-11-05T20:09:24.250Z,72.10
2022-11-05T20:11:54.057Z,72.20
2022-11-05T20:14:20.693Z,72.20
2022-11-05T20:16:47.342Z,72.20
2022-11-05T20:19:17.611Z,72.20
2022-11-05T20:21:44.854Z,72.20
2022-11-05T20:24:16.128Z,72.20
2022-11-05T20:26:45.305Z,72.20
2022-11-05T20:29:12.877Z,72.10
2022-11-05T20:31:39.553Z,72.10
2022-11-05T20:34:06.201Z,71.50
2022-11-05T20:36:32.808Z,72.10
2022-11-05T20:38:59.578Z,72.00
2022-11-05T20:41:26.737Z,72.00
2022-11-05T20:43:53.908Z,72.10
2022-11-05T20:46:22.248Z,71.40
2022-11-05T20:48:49.827Z,72.00
2022-11-05T20:51:19.721Z,72.00
2022-11-05T20:53:47.600Z,72.00
2022-11-05T20:56:19.582Z,71.90
2022-11-05T20:58:47.166Z,71.90
2022-11-05T21:01:15.588Z,71.90
2022-11-05T21:03:43.098Z,72.00
2022-11-05T21:06:09.716Z,72.70
2022-11-05T21:08:36.367Z,71.90
2022-11-05T21:11:03.516Z,71.90
2022-11-05T21:13:30.311Z,71.90
2022-11-05T21:15:58.707Z,71.90
2022-11-05T21:18:28.228Z,71.90
2022-11-05T21:20:55.400Z,71.90
2022-11-05T21:23:22.446Z,71.90
2022-11-05T21:25:49.473Z,71.90
2022-11-05T21:28:16.384Z,71.90
2022-11-05T21:30:48.992Z,72.00
2022-11-05T21:33:17.647Z,72.10
2022-11-05T21:35:46.729Z,72.10
2022-11-05T21:38:15.525Z,72.10
2022-11-05T21:40:42.805Z,72.20
2022-11-05T21:43:09.889Z,72.20
2022-11-05T21:45:40.915Z,72.10
2022-11-05T21:48:08.575Z,72.10
2022-11-05T21:50:56.637Z,72.40
2022-11-05T21:53:42.195Z,72.10
2022-11-05T21:56:39.145Z,72.10
2022-11-05T21:59:24.542Z,72.10
2022-11-05T22:01:51.370Z,72.00
2022-11-05T22:04:18.080Z,71.10
2022-11-05T22:06:44.680Z,71.00
2022-11-05T22:09:11.352Z,71.00
2022-11-05T22:11:38.195Z,71.00
2022-11-05T22:14:04.850Z,70.80
2022-11-05T22:16:31.428Z,70.60
2022-11-05T22:18:58.921Z,71.00
2022-11-05T22:21:25.534Z,70.90
2022-11-05T22:23:53.012Z,70.90
2022-11-05T22:26:19.997Z,70.90
2022-11-05T22:28:46.623Z,70.90
2022-11-05T22:31:14.764Z,71.80
2022-11-05T22:33:41.662Z,70.80
2022-11-05T22:36:08.721Z,70.80
2022-11-05T22:38:35.427Z,70.80
2022-11-05T22:41:14.483Z,70.80
2022-11-05T22:43:41.221Z,70.80
2022-11-05T22:46:16.465Z,70.80
2022-11-05T22:48:43.667Z,70.80
2022-11-05T22:51:18.641Z,70.80
2022-11-05T22:53:45.967Z,70.80
2022-11-05T22:56:15.732Z,70.80
2022-11-05T22:58:42.854Z,70.80
2022-11-05T23:01:15.467Z,70.80
2022-11-05T23:03:43.818Z,70.70
2022-11-05T23:06:40.971Z,70.70
2022-11-05T23:09:47.410Z,70.70
2022-11-05T23:12:24.883Z,70.70
2022-11-05T23:14:52.433Z,70.60
2022-11-05T23:17:37.830Z,70.60
2022-11-05T23:20:25.400Z,70.50
2022-11-05T23:23:10.920Z,70.70
2022-11-05T23:25:37.569Z,70.50
2022-11-05T23:28:07.555Z,70.50
2022-11-05T23:30:34.184Z,70.20
2022-11-05T23:33:00.773Z,70.30
2022-11-05T23:35:46.011Z,70.20
2022-11-05T23:38:31.306Z,70.00
2022-11-05T23:41:40.607Z,70.00
2022-11-05T23:44:31.699Z,70.00
2022-11-05T23:47:17.003Z,70.00
2022-11-05T23:49:43.596Z,69.90
2022-11-05T23:52:10.618Z,69.90
2022-11-05T23:54:39.882Z,69.10
2022-11-05T23:57:06.448Z,69.00
2022-11-05T23:59:33.072Z,69.90
